createdAt,value
2022-12-23T00:02:21.411Z,16.85
2022-12-23T00:04:48.396Z,14.48
2022-12-23T00:07:15.284Z,16.38
2022-12-23T00:09:42.219Z,15.25
2022-12-23T00:12:27.383Z,17.50
2022-12-23T00:15:06.319Z,23.48
2022-12-23T00:17:45.294Z,18.77
2022-12-23T00:20:15.174Z,16.85
2022-12-23T00:23:00.873Z,19.13
2022-12-23T00:25:44.528Z,14.20
2022-12-23T00:28:17.974Z,20.25
2022-12-23T00:31:09.620Z,19.38
2022-12-23T00:33:40.895Z,13.30
2022-12-23T00:36:29.340Z,17.90
2022-12-23T00:39:16.557Z,20.55
2022-12-23T00:42:01.941Z,22.70
2022-12-23T00:44:29.287Z,25.70
2022-12-23T00:46:56.187Z,16.38
2022-12-23T00:49:42.161Z,22.35
2022-12-23T00:52:15.793Z,19.55
2022-12-23T00:54:43.138Z,22.88
2022-12-23T00:57:10.408Z,26.40
2022-12-23T00:59:37.404Z,26.23
2022-12-23T01:02:23.549Z,29.00
2022-12-23T01:07:36.318Z,26.40
2022-12-23T01:10:03.996Z,28.90
2022-12-23T01:12:30.987Z,23.02
2022-12-23T01:14:57.969Z,26.17
2022-12-23T01:17:25.054Z,29.33
2022-12-23T01:19:52.064Z,27.48
2022-12-23T01:22:18.979Z,29.38
2022-12-23T01:24:45.985Z,34.63
2022-12-23T01:27:12.954Z,31.10
2022-12-23T01:29:39.921Z,28.98
2022-12-23T01:32:06.983Z,30.30
2022-12-23T01:34:37.068Z,28.50
2022-12-23T01:37:04.981Z,26.83
2022-12-23T01:39:32.042Z,25.98
2022-12-23T01:42:17.536Z,16.70
2022-12-23T01:45:00.987Z,18.80
2022-12-23T01:47:44.721Z,21.77
2022-12-23T01:50:29.825Z,16.20
2022-12-23T01:53:13.260Z,11.70
2022-12-23T01:55:59.426Z,14.43
2022-12-23T02:01:18.041Z,13.77
2022-12-23T02:03:46.463Z,17.00
2022-12-23T02:06:45.432Z,19.60
2022-12-23T02:09:24.731Z,16.77
2022-12-23T02:12:15.669Z,19.50
2022-12-23T02:15:45.083Z,19.77
2022-12-23T02:18:53.309Z,21.20
2022-12-23T02:21:48.381Z,19.13
2022-12-23T02:24:51.582Z,21.88
2022-12-23T02:27:31.455Z,21.83
2022-12-23T02:30:23.096Z,15.60
2022-12-23T02:33:14.358Z,21.05
2022-12-23T02:35:58.223Z,22.58
2022-12-23T02:38:42.746Z,18.23
2022-12-23T02:41:23.171Z,19.77
2022-12-23T02:44:37.947Z,19.23
2022-12-23T02:47:13.353Z,16.05
2022-12-23T02:49:45.600Z,17.23
2022-12-23T02:52:15.488Z,16.63
2022-12-23T02:54:50.704Z,22.17
2022-12-23T02:57:24.991Z,17.38
2022-12-23T02:59:52.933Z,17.98
2022-12-23T03:02:20.352Z,17.92
2022-12-23T03:04:47.439Z,16.38
2022-12-23T03:07:21.409Z,16.83
2022-12-23T03:10:22.431Z,17.13
2022-12-23T03:13:08.115Z,15.82
2022-12-23T03:16:24.335Z,15.95
2022-12-23T03:19:06.136Z,13.95
2022-12-23T03:22:07.324Z,16.83
2022-12-23T03:24:48.928Z,13.05
2022-12-23T03:27:59.309Z,14.68
2022-12-23T03:30:27.281Z,16.92
2022-12-23T03:33:01.313Z,17.45
2022-12-23T03:35:39.056Z,18.45
2022-12-23T03:38:07.441Z,14.20
2022-12-23T03:40:43.574Z,15.57
2022-12-23T03:43:24.825Z,14.43
2022-12-23T03:45:59.749Z,19.13
2022-12-23T03:48:29.520Z,19.98
2022-12-23T03:51:05.133Z,20.40
2022-12-23T03:53:41.383Z,19.45
2022-12-23T03:56:15.118Z,22.42
2022-12-23T03:59:03.642Z,20.13
2022-12-23T04:02:15.097Z,21.10
2022-12-23T04:05:10.050Z,19.98
2022-12-23T04:08:04.198Z,23.10
2022-12-23T04:10:31.846Z,22.95
2022-12-23T04:12:58.776Z,22.83
2022-12-23T04:15:27.282Z,25.08
2022-12-23T04:17:57.093Z,29.73
2022-12-23T04:20:24.647Z,28.63
2022-12-23T04:22:51.715Z,28.05
2022-12-23T04:25:19.284Z,29.58
2022-12-23T04:27:46.336Z,31.90
2022-12-23T04:30:13.865Z,28.33
2022-12-23T04:32:42.340Z,36.35
2022-12-23T04:35:10.903Z,27.15
2022-12-23T04:37:38.854Z,36.53
2022-12-23T04:40:06.908Z,35.53
2022-12-23T04:42:34.326Z,36.28
2022-12-23T04:45:01.322Z,36.45
2022-12-23T04:47:28.222Z,39.25
2022-12-23T04:49:55.159Z,34.83
2022-12-23T04:52:22.256Z,38.20
2022-12-23T04:54:49.177Z,38.15
2022-12-23T04:57:16.814Z,42.65
2022-12-23T04:59:43.840Z,37.35
2022-12-23T05:02:11.114Z,39.10
2022-12-23T05:04:38.385Z,37.30
2022-12-23T05:07:05.412Z,42.15
2022-12-23T05:09:32.399Z,49.03
2022-12-23T05:11:59.323Z,44.10
2022-12-23T05:14:26.233Z,40.40
2022-12-23T05:16:53.123Z,41.97
2022-12-23T05:19:20.250Z,35.22
2022-12-23T05:21:47.163Z,34.70
2022-12-23T05:24:14.102Z,35.22
2022-12-23T05:26:43.822Z,38.80
2022-12-23T05:29:15.750Z,43.40
2022-12-23T05:31:44.039Z,40.13
2022-12-23T05:34:11.495Z,31.02
2022-12-23T05:36:40.078Z,35.40
2022-12-23T05:39:07.290Z,37.00
2022-12-23T05:41:34.457Z,39.95
2022-12-23T05:44:01.444Z,30.38
2022-12-23T05:46:28.506Z,34.90
2022-12-23T05:48:55.702Z,32.90
2022-12-23T05:51:22.782Z,31.23
2022-12-23T05:53:49.730Z,29.77
2022-12-23T05:56:16.655Z,35.00
2022-12-23T05:58:43.705Z,28.02
2022-12-23T06:01:10.826Z,31.77
2022-12-23T06:03:37.996Z,32.83
2022-12-23T06:06:05.664Z,34.55
2022-12-23T06:08:32.600Z,32.40
2022-12-23T06:11:00.001Z,31.15
2022-12-23T06:13:27.171Z,28.35
2022-12-23T06:15:54.047Z,27.10
2022-12-23T06:18:21.030Z,32.17
2022-12-23T06:20:48.678Z,41.17
2022-12-23T06:23:15.730Z,33.15
2022-12-23T06:25:42.675Z,33.08
2022-12-23T06:28:09.557Z,38.00
2022-12-23T06:30:36.545Z,41.42
2022-12-23T06:33:03.616Z,42.05
2022-12-23T06:35:30.714Z,37.20
2022-12-23T06:37:57.693Z,35.63
2022-12-23T06:40:24.644Z,37.72
2022-12-23T06:42:51.663Z,32.35
2022-12-23T06:45:18.733Z,35.97
2022-12-23T06:47:45.758Z,41.33
2022-12-23T06:50:14.926Z,37.40
2022-12-23T06:52:41.898Z,37.65
2022-12-23T06:55:09.210Z,40.30
2022-12-23T06:57:36.246Z,36.75
2022-12-23T07:00:05.456Z,37.45
2022-12-23T07:02:32.711Z,45.58
2022-12-23T07:04:59.677Z,35.80
2022-12-23T07:07:26.658Z,36.97
2022-12-23T07:09:53.668Z,41.30
2022-12-23T07:12:20.579Z,44.63
2022-12-23T07:14:47.648Z,35.30
2022-12-23T07:17:14.602Z,38.42
2022-12-23T07:19:41.802Z,34.25
2022-12-23T07:22:10.162Z,40.70
2022-12-23T07:24:37.909Z,43.30
2022-12-23T07:27:05.340Z,36.72
2022-12-23T07:29:32.376Z,31.40
2022-12-23T07:32:01.358Z,38.00
2022-12-23T07:34:28.401Z,33.25
2022-12-23T07:36:55.928Z,41.15
2022-12-23T07:39:23.218Z,41.75
2022-12-23T07:41:59.044Z,39.03
2022-12-23T07:44:36.289Z,41.42
2022-12-23T07:47:03.318Z,37.35
2022-12-23T07:49:30.354Z,46.45
2022-12-23T07:51:58.186Z,53.22
2022-12-23T07:54:25.090Z,54.20
2022-12-23T07:56:52.084Z,61.15
2022-12-23T07:59:19.047Z,51.50
2022-12-23T08:01:46.168Z,49.55
2022-12-23T08:04:13.312Z,51.08
2022-12-23T08:06:41.364Z,59.97
2022-12-23T08:09:09.625Z,61.65
2022-12-23T08:11:36.604Z,54.80
2022-12-23T08:14:03.738Z,46.35
2022-12-23T08:16:30.735Z,45.35
2022-12-23T08:18:57.728Z,65.45
2022-12-23T08:21:24.833Z,46.15
2022-12-23T08:23:52.042Z,44.60
2022-12-23T08:26:24.567Z,52.00
2022-12-23T08:28:55.102Z,47.28
2022-12-23T08:31:39.967Z,45.00
2022-12-23T08:34:07.011Z,55.28
2022-12-23T08:36:36.013Z,58.53
2022-12-23T08:39:07.987Z,57.17
2022-12-23T08:41:43.371Z,55.42
2022-12-23T08:44:10.913Z,48.63
2022-12-23T08:46:38.769Z,51.45
2022-12-23T08:49:06.857Z,55.40
2022-12-23T08:51:34.919Z,64.93
2022-12-23T08:54:02.004Z,65.43
2022-12-23T08:56:33.060Z,55.33
2022-12-23T08:59:00.579Z,61.40
2022-12-23T09:01:31.354Z,58.58
2022-12-23T09:03:58.913Z,59.10
2022-12-23T09:06:31.526Z,60.50
2022-12-23T09:09:00.741Z,64.50
2022-12-23T09:11:30.205Z,70.90
2022-12-23T09:13:59.872Z,59.53
2022-12-23T09:16:28.099Z,54.05
2022-12-23T09:18:55.728Z,56.85
2022-12-23T09:21:23.903Z,69.32
2022-12-23T09:23:51.850Z,64.25
2022-12-23T09:26:25.983Z,57.63
2022-12-23T09:28:53.878Z,61.30
2022-12-23T09:31:23.612Z,57.22
2022-12-23T09:33:53.358Z,55.42
2022-12-23T09:36:22.339Z,55.30
2022-12-23T09:38:55.869Z,53.22
2022-12-23T09:42:09.158Z,57.45
2022-12-23T09:45:11.031Z,51.50
2022-12-23T09:47:38.937Z,46.60
2022-12-23T09:50:33.639Z,53.60
2022-12-23T09:53:18.235Z,45.92
2022-12-23T09:56:33.351Z,51.70
2022-12-23T09:59:22.626Z,48.28
2022-12-23T10:02:27.909Z,61.13
2022-12-23T10:05:44.949Z,52.13
2022-12-23T10:08:47.848Z,42.55
2022-12-23T10:11:22.740Z,52.10
2022-12-23T10:13:50.863Z,46.10
2022-12-23T10:16:26.747Z,45.58
2022-12-23T10:19:03.676Z,44.55
2022-12-23T10:22:02.654Z,49.92
2022-12-23T10:24:41.804Z,45.65
2022-12-23T10:27:32.916Z,37.45
2022-12-23T10:30:53.816Z,38.38
2022-12-23T10:34:06.029Z,33.22
2022-12-23T10:37:04.673Z,42.47
2022-12-23T10:40:03.034Z,42.22
2022-12-23T10:42:46.541Z,35.30
2022-12-23T10:46:03.627Z,31.35
2022-12-23T10:48:57.521Z,30.73
2022-12-23T10:51:50.045Z,28.45
2022-12-23T10:54:38.384Z,27.98
2022-12-23T10:57:07.225Z,31.15
2022-12-23T10:59:36.745Z,26.58
2022-12-23T11:02:12.972Z,29.88
2022-12-23T11:04:49.102Z,24.33
2022-12-23T11:07:44.659Z,19.98
2022-12-23T11:10:22.663Z,27.92
2022-12-23T11:12:53.871Z,21.65
2022-12-23T11:15:36.883Z,21.30
2022-12-23T11:18:14.293Z,22.40
2022-12-23T11:20:44.222Z,24.13
2022-12-23T11:23:36.833Z,23.83
2022-12-23T11:26:09.472Z,30.33
2022-12-23T11:28:48.695Z,31.45
2022-12-23T11:31:17.421Z,37.22
2022-12-23T11:33:59.889Z,33.15
2022-12-23T11:36:29.438Z,35.35
2022-12-23T11:39:07.788Z,34.58
2022-12-23T11:41:48.120Z,37.55
2022-12-23T11:44:38.468Z,34.15
2022-12-23T11:47:23.442Z,42.15
2022-12-23T11:49:54.700Z,43.45
2022-12-23T11:52:26.274Z,49.63
2022-12-23T11:55:02.768Z,45.30
2022-12-23T11:57:46.792Z,51.92
2022-12-23T12:00:22.900Z,52.05
2022-12-23T12:02:54.700Z,61.22
2022-12-23T12:05:40.487Z,57.00
2022-12-23T12:08:15.349Z,52.17
2022-12-23T12:10:43.194Z,49.83
2022-12-23T12:13:33.397Z,61.20
2022-12-23T12:16:31.008Z,52.90
2022-12-23T12:19:05.623Z,51.05
2022-12-23T12:21:38.136Z,54.88
2022-12-23T12:24:40.381Z,60.17
2022-12-23T12:27:11.308Z,52.92
2022-12-23T12:30:08.660Z,58.78
2022-12-23T12:32:46.616Z,60.92
2022-12-23T12:35:22.138Z,57.95
2022-12-23T12:37:56.436Z,54.67
2022-12-23T12:40:45.696Z,50.53
2022-12-23T12:43:27.722Z,51.15
2022-12-23T12:46:32.940Z,45.83
2022-12-23T12:49:18.854Z,55.63
2022-12-23T12:51:57.138Z,52.72
2022-12-23T12:54:32.719Z,45.30
2022-12-23T12:57:02.281Z,44.15
2022-12-23T12:59:35.107Z,44.25
2022-12-23T13:02:59.501Z,42.70
2022-12-23T13:05:59.755Z,44.25
2022-12-23T13:09:03.331Z,36.22
2022-12-23T13:12:14.987Z,36.20
2022-12-23T13:15:05.017Z,36.80
2022-12-23T13:17:45.172Z,37.05
2022-12-23T13:20:25.339Z,34.72
2022-12-23T13:23:33.787Z,36.20
2022-12-23T13:26:02.993Z,33.50
2022-12-23T13:29:08.040Z,31.08
2022-12-23T13:32:16.145Z,35.90
2022-12-23T13:35:13.366Z,34.85
2022-12-23T13:38:04.634Z,32.45
2022-12-23T13:41:10.698Z,30.52
2022-12-23T13:43:53.685Z,37.95
2022-12-23T13:46:43.762Z,33.30
2022-12-23T13:49:42.771Z,31.30
2022-12-23T13:52:50.960Z,26.10
2022-12-23T13:56:11.809Z,32.38
2022-12-23T13:58:40.687Z,34.08
2022-12-23T14:01:08.486Z,35.65
2022-12-23T14:03:38.199Z,37.67
2022-12-23T14:06:23.871Z,36.78
2022-12-23T14:08:55.231Z,34.28
2022-12-23T14:11:29.244Z,29.85
2022-12-23T14:14:03.335Z,35.53
2022-12-23T14:17:10.019Z,27.88
2022-12-23T14:20:09.356Z,30.30
2022-12-23T14:23:00.112Z,33.50
2022-12-23T14:25:52.861Z,35.25
2022-12-23T14:28:45.199Z,35.53
2022-12-23T14:31:42.000Z,28.67
2022-12-23T14:34:17.872Z,31.73
2022-12-23T14:37:23.208Z,30.10
2022-12-23T14:39:51.240Z,28.88
2022-12-23T14:42:45.273Z,30.60
2022-12-23T14:45:42.128Z,38.22
2022-12-23T14:48:34.430Z,27.35
2022-12-23T14:51:03.377Z,26.25
2022-12-23T14:53:33.433Z,31.98
2022-12-23T14:56:15.433Z,26.35
2022-12-23T14:58:54.360Z,28.60
2022-12-23T15:01:41.819Z,31.70
2022-12-23T15:04:40.000Z,21.25
2022-12-23T15:07:58.127Z,32.00
2022-12-23T15:10:26.987Z,25.40
2022-12-23T15:12:58.380Z,26.63
2022-12-23T15:15:29.570Z,24.95
2022-12-23T15:18:26.888Z,27.15
2022-12-23T15:21:03.277Z,23.13
2022-12-23T15:23:30.534Z,25.15
2022-12-23T15:26:00.460Z,27.25
2022-12-23T15:28:36.787Z,27.90
2022-12-23T15:31:05.582Z,22.70
2022-12-23T15:34:03.052Z,25.63
2022-12-23T15:36:38.466Z,24.50
2022-12-23T15:39:20.004Z,27.13
2022-12-23T15:41:48.512Z,21.30
2022-12-23T15:44:25.768Z,24.08
2022-12-23T15:46:53.341Z,25.73
2022-12-23T15:49:21.876Z,27.73
2022-12-23T15:52:17.957Z,33.13
2022-12-23T15:55:03.368Z,25.70
2022-12-23T15:57:31.321Z,28.05
2022-12-23T15:59:59.338Z,25.65
2022-12-23T16:03:00.573Z,25.55
2022-12-23T16:05:33.107Z,24.45
2022-12-23T16:08:20.500Z,27.75
2022-12-23T16:11:13.806Z,28.25
2022-12-23T16:13:58.071Z,30.67
2022-12-23T16:16:43.575Z,26.58
2022-12-23T16:19:49.184Z,29.60
2022-12-23T16:22:36.251Z,30.35
2022-12-23T16:25:15.160Z,28.55
2022-12-23T16:27:49.708Z,37.80
2022-12-23T16:30:24.734Z,33.95
2022-12-23T16:33:02.367Z,35.25
2022-12-23T16:35:40.430Z,30.60
2022-12-23T16:38:13.611Z,44.33
2022-12-23T16:40:42.280Z,41.88
2022-12-23T16:43:09.482Z,44.42
2022-12-23T16:45:37.626Z,42.88
2022-12-23T16:48:36.691Z,45.58
2022-12-23T16:51:11.462Z,42.40
2022-12-23T16:53:38.730Z,39.10
2022-12-23T16:56:20.497Z,58.20
2022-12-23T16:58:47.663Z,38.17
2022-12-23T17:01:22.611Z,42.60
2022-12-23T17:03:50.224Z,46.03
2022-12-23T17:06:19.604Z,53.25
2022-12-23T17:08:46.777Z,44.78
2022-12-23T17:11:25.389Z,48.33
2022-12-23T17:13:55.319Z,43.95
2022-12-23T17:16:25.860Z,41.47
2022-12-23T17:18:53.284Z,50.30
2022-12-23T17:21:26.207Z,50.97
2022-12-23T17:23:56.660Z,54.60
2022-12-23T17:26:23.642Z,55.03
2022-12-23T17:28:50.588Z,50.70
2022-12-23T17:31:26.622Z,50.08
2022-12-23T17:33:54.481Z,50.95
2022-12-23T17:36:22.108Z,46.03
2022-12-23T17:38:49.236Z,48.10
2022-12-23T17:41:28.416Z,47.58
2022-12-23T17:43:55.898Z,56.88
2022-12-23T17:46:23.386Z,60.40
2022-12-23T17:48:50.822Z,53.08
2022-12-23T17:51:21.192Z,48.03
2022-12-23T17:53:55.171Z,60.13
2022-12-23T17:56:26.096Z,51.47
2022-12-23T17:58:53.223Z,58.70
2022-12-23T18:01:31.782Z,49.67
2022-12-23T18:04:00.440Z,51.58
2022-12-23T18:06:29.116Z,46.45
2022-12-23T18:08:59.233Z,39.30
2022-12-23T18:11:45.864Z,41.20
2022-12-23T18:14:31.945Z,25.30
2022-12-23T18:16:59.465Z,20.38
2022-12-23T18:19:26.471Z,21.25
2022-12-23T18:21:53.669Z,23.73
2022-12-23T18:24:20.549Z,23.33
2022-12-23T18:26:47.597Z,23.00
2022-12-23T18:29:14.619Z,22.05
2022-12-23T18:31:51.123Z,21.83
2022-12-23T18:34:20.363Z,20.67
2022-12-23T18:36:48.734Z,19.38
2022-12-23T18:39:15.806Z,27.42
2022-12-23T18:41:42.881Z,32.00
2022-12-23T18:44:20.338Z,27.55
2022-12-23T18:46:48.360Z,29.40
2022-12-23T18:49:15.577Z,18.83
2022-12-23T18:51:42.554Z,22.98
2022-12-23T18:54:16.725Z,27.85
2022-12-23T18:56:44.126Z,32.13
2022-12-23T18:59:29.690Z,19.75
2022-12-23T19:04:25.698Z,19.08
2022-12-23T19:06:52.669Z,28.95
2022-12-23T19:09:23.312Z,28.15
2022-12-23T19:11:52.977Z,25.13
2022-12-23T19:14:20.047Z,31.23
2022-12-23T19:16:51.618Z,24.30
2022-12-23T19:19:20.317Z,18.52
2022-12-23T19:21:47.244Z,32.42
2022-12-23T19:24:14.210Z,32.63
2022-12-23T19:26:41.141Z,31.60
2022-12-23T19:29:08.834Z,42.28
2022-12-23T19:31:35.897Z,23.70
2022-12-23T19:34:03.353Z,26.95
2022-12-23T19:36:30.928Z,37.13
2022-12-23T19:38:58.581Z,49.17
2022-12-23T19:41:25.953Z,37.00
2022-12-23T19:43:52.811Z,36.22
2022-12-23T19:46:19.944Z,47.28
2022-12-23T19:48:52.265Z,26.48
2022-12-23T19:51:19.468Z,19.05
2022-12-23T19:53:51.656Z,40.08
2022-12-23T19:56:21.213Z,30.40
2022-12-23T19:58:49.810Z,31.40
2022-12-23T20:01:24.216Z,33.20
2022-12-23T20:03:54.639Z,27.15
2022-12-23T20:06:28.927Z,25.42
2022-12-23T20:09:01.005Z,28.73
2022-12-23T20:11:30.617Z,32.95
2022-12-23T20:13:58.493Z,26.30
2022-12-23T20:16:26.501Z,25.90
2022-12-23T20:18:53.962Z,36.20
2022-12-23T20:21:21.709Z,44.45
2022-12-23T20:23:49.162Z,36.35
2022-12-23T20:26:19.142Z,32.40
2022-12-23T20:28:46.931Z,45.03
2022-12-23T20:31:29.290Z,38.63
2022-12-23T20:33:57.312Z,32.65
2022-12-23T20:36:31.571Z,35.05
2022-12-23T20:38:59.236Z,26.10
2022-12-23T20:41:28.641Z,36.75
2022-12-23T20:44:32.276Z,28.33
2022-12-23T20:46:43.246Z,29.15
2022-12-23T20:49:10.348Z,34.38
2022-12-23T20:51:38.489Z,36.03
2022-12-23T20:54:05.622Z,33.17
2022-12-23T20:56:32.610Z,27.10
2022-12-23T20:59:00.366Z,23.40
2022-12-23T21:01:39.398Z,28.15
2022-12-23T21:04:18.440Z,26.58
2022-12-23T21:06:45.709Z,22.77
2022-12-23T21:09:15.571Z,26.02
2022-12-23T21:11:46.159Z,25.85
2022-12-23T21:14:14.590Z,16.85
2022-12-23T21:16:42.665Z,21.70
2022-12-23T21:19:16.568Z,29.52
2022-12-23T21:21:43.727Z,17.65
2022-12-23T21:24:11.558Z,26.85
2022-12-23T21:26:38.655Z,20.30
2022-12-23T21:29:08.530Z,20.90
2022-12-23T21:31:39.166Z,15.13
2022-12-23T21:34:07.535Z,18.77
2022-12-23T21:36:38.658Z,25.70
2022-12-23T21:39:07.807Z,21.35
2022-12-23T21:41:38.401Z,23.13
2022-12-23T21:44:06.022Z,27.08
2022-12-23T21:46:33.492Z,18.48
2022-12-23T21:49:01.798Z,22.88
2022-12-23T21:51:39.653Z,17.42
2022-12-23T21:54:08.877Z,25.63
2022-12-23T21:56:36.089Z,19.90
2022-12-23T21:59:06.874Z,30.55
2022-12-23T22:01:34.881Z,27.77
2022-12-23T22:04:02.080Z,15.02
2022-12-23T22:06:39.346Z,15.50
2022-12-23T22:09:08.052Z,27.60
2022-12-23T22:11:37.336Z,20.33
2022-12-23T22:14:07.637Z,19.77
2022-12-23T22:16:35.931Z,15.90
2022-12-23T22:19:04.587Z,17.95
2022-12-23T22:21:33.408Z,21.35
2022-12-23T22:24:00.796Z,23.23
2022-12-23T22:26:31.333Z,21.70
2022-12-23T22:29:02.572Z,20.33
2022-12-23T22:31:40.911Z,18.10
2022-12-23T22:34:09.205Z,24.40
2022-12-23T22:36:36.312Z,13.60
2022-12-23T22:39:04.456Z,12.82
2022-12-23T22:41:32.045Z,21.55
2022-12-23T22:44:00.137Z,11.82
2022-12-23T22:46:27.890Z,15.77
2022-12-23T22:48:55.494Z,17.20
2022-12-23T22:51:26.711Z,19.08
2022-12-23T22:53:54.324Z,21.73
2022-12-23T22:56:23.737Z,22.80
2022-12-23T22:58:51.439Z,25.80
2022-12-23T23:01:30.939Z,28.40
2022-12-23T23:04:00.992Z,18.05
2022-12-23T23:06:40.874Z,16.55
2022-12-23T23:09:17.657Z,27.77
2022-12-23T23:11:44.740Z,21.20
2022-12-23T23:14:12.536Z,22.52
2022-12-23T23:16:39.935Z,17.58
2022-12-23T23:19:09.237Z,18.50
2022-12-23T23:21:37.776Z,22.85
2022-12-23T23:24:05.594Z,20.05
2022-12-23T23:26:32.580Z,18.85
2022-12-23T23:28:59.491Z,20.80
2022-12-23T23:31:43.261Z,22.13
2022-12-23T23:34:11.961Z,19.40
2022-12-23T23:36:39.436Z,18.55
2022-12-23T23:39:06.725Z,23.10
2022-12-23T23:41:34.387Z,27.20
2022-12-23T23:44:01.290Z,25.85
2022-12-23T23:46:28.401Z,20.58
2022-12-23T23:48:55.352Z,21.00
2022-12-23T23:51:22.279Z,17.67
2022-12-23T23:53:49.375Z,27.27
2022-12-23T23:56:21.980Z,16.02
2022-12-23T23:58:52.068Z,22.80
